Latest Weather Observations for Coonamble

IDN60801

Issued at 6:03 pm EDT Friday 20 October 2017 (issued every 30 minutes, with the page automatically refreshed every 10 minutes)

About weather observations | Map of weather stations | Latest weather observations for NSW | Other Formats
Station Details ID: 051161 Name: COONAMBLE AIRPORT AWS Lat: -30.98 Lon: 148.38 Height: 181.3 m
Data from the previous 72 hours. | See also: Recent months at Coonamble
Date/Time
EDT
Temp
°C
App
Temp
°C
Dew
Point
°C
Rel
Hum
%
Delta-T
°C
Wind Press
QNH
hPa
Press
MSL
hPa
Rain since
9am
mm
Dir  Spd
km/h
Gust
km/h
Spd
kts
Gust
kts
20/06:00pm 19.7 19.5 19.4 98 0.2 SSW 19 26 10 14 1018.0 1017.5 11.8
20/05:30pm 19.7 19.5 19.4 98 0.2 SSW 19 24 10 13 1018.1 1017.6 11.6
20/05:00pm 19.8 19.7 19.5 98 0.2 SSW 19 22 10 12 1018.3 1017.8 11.4
20/04:30pm 19.4 19.5 19.1 98 0.2 SW 17 22 9 12 1018.4 1017.9 11.2
20/04:00pm 19.8 20.4 19.5 98 0.2 SW 15 19 8 10 1018.3 1017.8 11.0
20/03:30pm 20.0 20.7 19.7 98 0.2 WSW 15 20 8 11 1018.7 1018.2 10.8
20/03:00pm 20.0 20.7 19.7 98 0.2 SW 15 19 8 10 1019.1 1018.6 10.8
20/02:30pm 20.9 22.0 20.4 97 0.3 SW 15 19 8 10 1019.1 1018.6 10.8
20/02:00pm 21.2 22.3 20.4 95 0.5 SW 15 19 8 10 1019.5 1019.0 10.8
20/01:30pm 20.8 22.2 20.3 97 0.3 WSW 13 17 7 9 1019.7 1019.2 10.8
20/01:00pm 20.6 22.0 20.3 98 0.2 W 13 20 7 11 1019.8 1019.3 10.6
20/12:30pm 19.8 20.8 19.5 98 0.2 NNW 13 17 7 9 1020.0 1019.5 10.2
20/12:00pm 19.3 19.3 19.0 98 0.2 N 17 22 9 12 1019.8 1019.3 9.8
20/11:30am 18.9 18.7 18.6 98 0.2 N 17 24 9 13 1020.4 1019.9 9.0
20/11:00am 18.8 18.0 18.5 98 0.2 N 20 26 11 14 1020.3 1019.8 8.0
20/10:30am 18.6 17.7 18.3 98 0.2 NNE 20 28 11 15 1020.4 1019.9 6.6
20/10:00am 18.5 17.2 18.2 98 0.2 NNE 22 32 12 17 1020.2 1019.7 4.8
20/09:30am 18.6 17.0 18.3 98 0.2 NNE 24 32 13 17 1020.2 1019.7 2.8
20/09:00am 18.6 17.0 18.3 98 0.2 NNE 24 33 13 18 1019.7 1019.2 14.2
20/08:30am 18.3 17.4 18.1 99 0.1 NE 20 32 11 17 1020.3 1019.8 10.6
20/08:00am 18.3 17.0 18.1 99 0.1 SE 22 33 12 18 1021.0 1020.5 7.2
20/07:30am 18.8 19.4 18.6 99 0.1 ENE 13 17 7 9 1020.3 1019.8 5.2
20/07:00am 18.9 19.5 18.7 99 0.1 NE 13 17 7 9 1019.9 1019.4 3.6
20/06:30am 19.4 21.0 19.2 99 0.1 NNE 9 15 5 8 1019.6 1019.1 2.2
20/06:00am 19.6 21.7 19.4 99 0.1 NW 7 11 4 6 1019.6 1019.1 1.0
20/05:30am 19.7 20.7 19.4 98 0.2 WNW 13 19 7 10 1019.5 1019.0 0.4
20/05:00am 20.2 22.5 19.9 98 0.2 W 7 11 4 6 1019.0 1018.5 0.4
20/04:30am 20.1 22.1 19.9 99 0.1 S 9 13 5 7 1018.8 1018.3 0.2
20/04:00am 20.5 22.2 20.2 98 0.2 SSW 11 15 6 8 1018.7 1018.2 0.0
20/03:30am 20.8 22.2 20.3 97 0.3 S 13 17 7 9 1018.7 1018.2 0.0
20/03:00am 20.9 21.2 20.4 97 0.3 S 19 22 10 12 1018.7 1018.2 0.0
20/02:30am 21.4 21.7 19.7 90 1.1 S 17 24 9 13 1018.8 1018.3 0.0
20/02:00am 22.8 24.2 17.3 71 3.4 NW 6 11 3 6 1019.2 1018.7 0.0
20/01:30am 23.1 21.5 16.6 67 4.0 NW 20 28 11 15 1019.5 1019.0 0.0
20/01:00am 24.5 23.7 15.1 55 5.7 NNW 13 17 7 9 1019.5 1019.0 0.0
20/12:30am 24.5 22.9 15.1 55 5.7 NNW 17 22 9 12 1019.7 1019.2 0.0
20/12:00am 25.4 24.6 12.9 45 7.3 NW 9 11 5 6 1019.6 1019.1 0.0
 
Date/Time
EDT
Temp
°C
App
Temp
°C
Dew
Point
°C
Rel
Hum
%
Delta-T
°C
Wind Press
QNH
hPa
Press
MSL
hPa
Rain since
9am
mm
Dir  Spd
km/h
Gust
km/h
Spd
kts
Gust
kts
19/11:30pm 26.2 24.2 11.5 40 8.4 NNE 13 20 7 11 1019.6 1019.1 0.0
19/11:00pm 26.1 24.6 11.8 41 8.2 NNE 11 13 6 7 1019.6 1019.1 0.0
19/10:30pm 26.3 25.1 11.6 40 8.4 NNE 9 13 5 7 1019.8 1019.3 0.0
19/10:00pm 26.6 24.9 11.1 38 8.8 NNE 11 15 6 8 1019.9 1019.4 0.0
19/09:30pm 26.4 25.1 11.3 39 8.6 NE 9 13 5 7 1019.8 1019.3 0.0
19/09:00pm 26.6 25.3 11.1 38 8.8 NE 9 13 5 7 1019.6 1019.1 0.0
19/08:30pm 27.1 25.7 10.8 36 9.3 NNE 9 13 5 7 1019.6 1019.1 0.0
19/08:00pm 27.1 25.5 10.3 35 9.5 NNE 9 13 5 7 1019.6 1019.1 0.0
19/07:30pm 27.7 26.0 10.0 33 10.0 N 9 15 5 8 1019.3 1018.8 0.0
19/07:00pm 28.2 24.9 9.5 31 10.5 NNE 17 20 9 11 1019.0 1018.5 0.0
19/06:30pm 28.4 25.4 9.2 30 10.7 N 15 19 8 10 1019.1 1018.6 0.0
19/06:00pm 28.8 25.4 9.0 29 11.0 N 17 24 9 13 1018.9 1018.4 0.0
19/05:30pm 29.0 25.6 9.2 29 11.1 N 17 26 9 14 1018.9 1018.4 0.0
19/05:00pm 29.5 25.8 9.6 29 11.2 NNE 19 26 10 14 1019.0 1018.5 0.0
19/04:30pm 29.3 25.5 8.9 28 11.4 N 19 26 10 14 1019.2 1018.7 0.0
19/04:00pm 30.3 26.7 9.8 28 11.6 N 19 33 10 18 1019.5 1019.0 0.0
19/03:30pm 29.4 25.5 9.5 29 11.2 N 20 32 11 17 1020.0 1019.5 0.0
19/03:00pm 28.7 24.7 8.9 29 11.0 NNE 20 33 11 18 1020.5 1020.0 0.0
19/02:30pm 28.9 25.2 10.1 31 10.7 NNE 20 33 11 18 1021.1 1020.6 0.0
19/02:00pm 27.9 23.4 10.1 33 10.0 NE 24 30 13 16 1021.5 1021.0 0.0
19/01:30pm 28.1 24.6 10.8 34 9.9 NNE 20 32 11 17 1021.9 1021.4 0.0
19/01:00pm 27.2 23.7 10.8 36 9.3 N 20 32 11 17 1022.3 1021.9 0.0
19/12:30pm 27.1 22.8 10.8 36 9.3 N 24 33 13 18 1022.8 1022.4 0.0
19/12:00pm 26.6 22.4 11.1 38 8.8 NNE 24 33 13 18 1023.3 1022.8 0.0
19/11:30am 26.1 21.5 11.1 39 8.5 NNE 26 39 14 21 1023.8 1023.3 0.0
19/11:00am 24.8 19.8 11.0 42 7.8 NNE 28 43 15 23 1024.1 1023.6 0.0
19/10:30am 24.0 19.8 11.0 44 7.3 NNE 24 35 13 19 1024.7 1024.2 0.0
19/10:00am 23.3 18.3 11.0 46 6.9 NNE 28 39 15 21 1024.9 1024.4 0.0
19/09:30am 23.0 18.4 11.1 47 6.7 NNE 26 39 14 21 1025.1 1024.6 0.0
19/09:00am 22.2 16.5 11.0 49 6.2 NNE 32 44 17 24 1025.0 1024.5 0.0
19/08:30am 21.9 16.9 11.0 50 6.1 NNE 28 39 15 21 1024.8 1024.3 0.0
19/08:08am 21.1 15.7 10.9 52 5.6 NNE 30 48 16 26 1024.6 1024.1 0.0
19/08:00am 21.0 16.3 10.8 52 5.6 NNE 26 39 14 21 1024.7 1024.2 0.0
19/07:30am 19.9 16.5 11.1 57 4.9 NNE 20 30 11 16 1024.5 1024.0 0.0
19/07:00am 19.4 16.6 11.2 59 4.5 NE 17 24 9 13 1024.4 1023.9 0.0
19/06:30am 19.3 16.4 11.1 59 4.5 NE 17 26 9 14 1023.9 1023.4 0.0
19/06:00am 19.1 16.6 11.2 60 4.3 NE 15 22 8 12 1023.5 1023.0 0.0
19/05:30am 19.0 16.1 11.1 60 4.3 NE 17 24 9 13 1023.0 1022.6 0.0
19/05:00am 19.4 16.2 11.2 59 4.5 NNE 19 26 10 14 1022.7 1022.3 0.0
19/04:30am 19.9 16.5 11.1 57 4.9 NNE 20 30 11 16 1022.6 1022.2 0.0
19/04:00am 20.1 16.7 11.1 56 5.0 NNE 20 28 11 15 1022.6 1022.2 0.0
19/03:30am 20.2 16.8 11.4 57 4.9 NNE 20 28 11 15 1022.7 1022.3 0.0
19/03:00am 20.5 17.2 11.7 57 4.9 NNE 20 28 11 15 1022.9 1022.5 0.0
19/02:30am 20.7 17.4 11.6 56 5.1 NNE 20 28 11 15 1023.2 1022.7 0.0
19/02:00am 21.2 17.1 11.5 54 5.4 NNE 24 35 13 19 1023.0 1022.6 0.0
19/01:30am 21.6 16.8 11.6 53 5.6 NNE 28 41 15 22 1023.3 1022.8 0.0
19/01:00am 22.1 18.5 11.8 52 5.8 NE 22 35 12 19 1023.6 1023.1 0.0
19/12:30am 22.8 18.7 11.5 49 6.4 NNE 24 35 13 19 1023.5 1023.0 0.0
19/12:19am 23.2 18.4 11.6 48 6.6 NNE 28 48 15 26 1023.4 1022.9 0.0
19/12:00am 23.5 19.0 11.5 47 6.8 NNE 26 37 14 20 1023.2 1022.7 0.0
 
Date/Time
EDT
Temp
°C
App
Temp
°C
Dew
Point
°C
Rel
Hum
%
Delta-T
°C
Wind Press
QNH
hPa
Press
MSL
hPa
Rain since
9am
mm
Dir  Spd
km/h
Gust
km/h
Spd
kts
Gust
kts
18/11:30pm 24.7 20.1 10.9 42 7.8 NNE 26 35 14 19 1022.7 1022.3 0.0
18/11:00pm 25.2 21.2 10.6 40 8.2 NNE 22 37 12 20 1022.4 1022.0 0.0
18/10:30pm 25.6 22.0 10.6 39 8.4 NE 20 28 11 15 1022.1 1021.6 0.0
18/10:00pm 25.5 22.7 10.1 38 8.6 NE 15 20 8 11 1021.8 1021.3 0.0
18/09:30pm 25.8 23.3 9.6 36 9.0 NNE 13 17 7 9 1021.5 1021.0 0.0
18/09:00pm 26.5 24.3 9.4 34 9.5 NNE 11 15 6 8 1021.2 1020.7 0.0
18/08:30pm 26.4 24.0 8.8 33 9.7 N 11 15 6 8 1020.8 1020.3 0.0
18/08:00pm 26.8 24.7 8.3 31 10.1 N 9 13 5 7 1020.3 1019.8 0.0
18/07:30pm 27.6 25.4 8.0 29 10.7 N 9 13 5 7 1019.9 1019.4 0.0
18/07:00pm 28.9 25.3 6.9 25 11.8 NNE 15 20 8 11 1019.6 1019.1 0.0
18/06:30pm 29.7 25.8 7.0 24 12.3 NNE 17 22 9 12 1019.4 1018.9 0.0
18/06:00pm 29.9 24.9 6.5 23 12.5 NNE 22 33 12 18 1019.3 1018.8 0.0
18/05:30pm 30.6 26.0 6.5 22 13.0 NNE 20 30 11 16 1019.3 1018.8 0.0
18/05:00pm 30.9 26.9 6.7 22 13.1 NNE 17 32 9 17 1019.3 1018.8 0.0
18/04:30pm 30.6 27.1 7.1 23 12.8 N 15 26 8 14 1019.3 1018.8 0.0
18/04:00pm 30.5 27.0 7.0 23 12.7 N 15 32 8 17 1019.5 1019.0 0.0
18/03:30pm 30.1 25.6 6.1 22 12.8 NNE 19 28 10 15 1020.0 1019.5 0.0
18/03:00pm 30.2 26.2 6.8 23 12.6 NNE 17 32 9 17 1020.2 1019.7 0.0
18/02:30pm 30.1 26.2 7.3 24 12.4 NE 17 32 9 17 1020.7 1020.2 0.0
18/02:00pm 29.7 26.3 7.6 25 12.0 NNE 15 24 8 13 1021.2 1020.7 0.0
18/01:30pm 29.1 24.6 7.1 25 11.9 NE 20 33 11 18 1021.6 1021.1 0.0
18/01:00pm 29.3 25.4 7.2 25 11.9 NE 17 28 9 15 1022.0 1021.5 0.0
18/12:30pm 28.0 23.9 6.2 25 11.5 NNE 17 28 9 15 1022.6 1022.2 0.0
18/12:00pm 28.3 23.9 6.4 25 11.6 NE 19 30 10 16 1023.2 1022.7 0.0
18/11:30am 27.3 22.6 6.1 26 11.2 ENE 20 30 11 16 1023.6 1023.1 0.0
18/11:00am 26.5 21.8 6.0 27 10.7 ENE 20 30 11 16 1023.8 1023.3 0.0
18/10:30am 25.6 20.7 6.8 30 9.9 E 22 30 12 16 1024.1 1023.6 0.0
18/10:00am 24.3 19.4 7.0 33 9.0 E 22 32 12 17 1024.4 1023.9 0.0
18/09:30am 23.4 18.6 7.5 36 8.4 E 22 32 12 17 1024.7 1024.2 0.0
18/09:00am 22.1 17.0 7.5 39 7.6 E 24 33 13 18 1024.6 1024.1 0.0
18/08:30am 21.0 15.7 8.6 45 6.6 E 26 35 14 19 1024.6 1024.1 0.0
18/08:00am 19.5 14.3 8.8 50 5.6 E 26 39 14 21 1024.5 1024.0 0.0
18/07:30am 18.3 14.9 9.1 55 4.8 E 17 24 9 13 1024.3 1023.8 0.0
18/07:00am 17.2 14.2 9.1 59 4.2 ENE 15 19 8 10 1024.0 1023.5 0.0
18/06:30am 17.3 14.2 9.0 58 4.3 E 15 19 8 10 1023.4 1022.9 0.0
18/06:00am 17.7 14.6 8.8 56 4.6 E 15 19 8 10 1022.9 1022.5 0.0
18/05:30am 17.7 14.9 8.6 55 4.7 E 13 19 7 10 1022.7 1022.3 0.0
18/05:00am 17.9 14.6 8.2 53 5.0 E 15 20 8 11 1022.6 1022.2 0.0
18/04:30am 18.5 14.9 8.2 51 5.3 E 17 24 9 13 1022.5 1022.1 0.0
18/04:00am 18.9 14.6 8.0 49 5.6 E 20 30 11 16 1022.3 1021.9 0.0
18/03:30am 19.5 14.4 7.6 46 6.1 E 24 32 13 17 1022.3 1021.9 0.0
18/03:00am 19.9 15.1 7.3 44 6.5 E 22 32 12 17 1022.5 1022.1 0.0
18/02:30am 20.3 15.9 7.3 43 6.7 E 20 26 11 14 1022.6 1022.2 0.0
18/02:00am 20.5 15.7 7.5 43 6.7 E 22 33 12 18 1022.8 1022.4 0.0
18/01:30am 20.8 16.4 7.4 42 6.9 E 20 30 11 16 1023.0 1022.6 0.0
18/01:00am 21.3 17.6 7.9 42 7.0 ENE 17 24 9 13 1023.4 1022.9 0.0
18/12:30am 21.9 17.9 8.4 42 7.2 ENE 19 28 10 15 1023.4 1022.9 0.0
18/12:00am 20.3 19.0 11.2 56 5.0 E 9 11 5 6 1023.4 1022.9 0.0
 
Date/Time
EDT
Temp
°C
App
Temp
°C
Dew
Point
°C
Rel
Hum
%
Delta-T
°C
Wind Press
QNH
hPa
Press
MSL
hPa
Rain since
9am
mm
Dir  Spd
km/h
Gust
km/h
Spd
kts
Gust
kts
17/11:30pm 20.6 19.1 10.7 53 5.4 NE 9 11 5 6 1023.4 1022.9 0.0
17/11:00pm 21.1 19.5 10.3 50 5.9 N 9 13 5 7 1023.3 1022.8 0.0
17/10:30pm 22.3 20.3 10.1 46 6.7 NNE 11 17 6 9 1022.9 1022.5 0.0
17/10:00pm 22.6 21.4 10.4 46 6.7 NNE 7 11 4 6 1022.4 1022.0 0.0
17/09:30pm 23.6 21.5 9.6 41 7.7 N 11 19 6 10 1022.1 1021.6 0.0
17/09:00pm 24.1 19.5 5.5 30 9.5 E 19 24 10 13 1021.4 1020.9 0.0
17/08:30pm 24.5 20.9 4.8 28 10.0 ESE 13 19 7 10 1020.6 1020.1 0.0
17/08:00pm 24.8 21.6 5.1 28 10.0 ESE 11 15 6 8 1020.2 1019.7 0.0
17/07:30pm 25.3 22.5 5.0 27 10.3 ESE 9 13 5 7 1020.0 1019.5 0.0
17/07:00pm 26.6 23.0 5.0 25 11.1 E 13 15 7 8 1019.7 1019.2 0.0
17/06:30pm 27.5 22.1 4.5 23 11.8 E 22 30 12 16 1019.4 1018.9 0.0

Other Formats:

Comma delimited format used in spreadsheet applications
http://www.bom.gov.au/fwo/IDN60801/IDN60801.95718.axf

JavaScript Object Notation format (JSON) in row-major order
http://www.bom.gov.au/fwo/IDN60801/IDN60801.95718.json